sensor_id;sensor_type;location;lat;lon;timestamp;temperature;humidity
5705;DHT22;2877;48.238;11.160;2023-08-21T00:00:42;20.90;99.90
5705;DHT22;2877;48.238;11.160;2023-08-21T00:03:08;20.90;99.90
5705;DHT22;2877;48.238;11.160;2023-08-21T00:05:33;20.90;99.90
5705;DHT22;2877;48.238;11.160;2023-08-21T00:07:59;20.80;99.90
5705;DHT22;2877;48.238;11.160;2023-08-21T00:10:24;20.90;99.90
5705;DHT22;2877;48.238;11.160;2023-08-21T00:12:50;20.90;99.90
5705;DHT22;2877;48.238;11.160;2023-08-21T00:15:16;20.90;99.90
5705;DHT22;2877;48.238;11.160;2023-08-21T00:17:41;20.90;99.90
5705;DHT22;2877;48.238;11.160;2023-08-21T00:20:07;20.80;99.90
5705;DHT22;2877;48.238;11.160;2023-08-21T00:22:35;20.70;99.90
5705;DHT22;2877;48.238;11.160;2023-08-21T00:25:01;20.60;99.90
5705;DHT22;2877;48.238;11.160;2023-08-21T00:27:26;20.60;99.90
5705;DHT22;2877;48.238;11.160;2023-08-21T00:29:52;20.50;99.90
5705;DHT22;2877;48.238;11.160;2023-08-21T00:32:17;20.50;99.90
5705;DHT22;2877;48.238;11.160;2023-08-21T00:34:43;20.50;99.90
5705;DHT22;2877;48.238;11.160;2023-08-21T00:37:09;20.40;99.90
5705;DHT22;2877;48.238;11.160;2023-08-21T00:39:34;20.40;99.90
5705;DHT22;2877;48.238;11.160;2023-08-21T00:42:00;20.40;99.90
5705;DHT22;2877;48.238;11.160;2023-08-21T00:44:25;20.50;99.90
5705;DHT22;2877;48.238;11.160;2023-08-21T00:46:51;20.50;99.90
5705;DHT22;2877;48.238;11.160;2023-08-21T00:49:17;20.50;99.90
5705;DHT22;2877;48.238;11.160;2023-08-21T00:51:44;20.40;99.90
5705;DHT22;2877;48.238;11.160;2023-08-21T00:54:09;20.30;99.90
5705;DHT22;2877;48.238;11.160;2023-08-21T00:56:35;20.20;99.90
5705;DHT22;2877;48.238;11.160;2023-08-21T00:59:01;20.20;99.90
5705;DHT22;2877;48.238;11.160;2023-08-21T01:01:28;20.30;99.90
5705;DHT22;2877;48.238;11.160;2023-08-21T01:03:54;20.20;99.90
5705;DHT22;2877;48.238;11.160;2023-08-21T01:06:20;20.10;99.90
5705;DHT22;2877;48.238;11.160;2023-08-21T01:09:07;20.00;99.90
5705;DHT22;2877;48.238;11.160;2023-08-21T01:11:41;19.90;99.90
5705;DHT22;2877;48.238;11.160;2023-08-21T01:16:45;19.90;99.90
5705;DHT22;2877;48.238;11.160;2023-08-21T01:19:24;19.80;99.90
5705;DHT22;2877;48.238;11.160;2023-08-21T01:21:51;19.80;99.90
5705;DHT22;2877;48.238;11.160;2023-08-21T01:24:19;19.80;99.90
5705;DHT22;2877;48.238;11.160;2023-08-21T01:26:45;19.70;99.90
5705;DHT22;2877;48.238;11.160;2023-08-21T01:29:11;19.80;99.90
5705;DHT22;2877;48.238;11.160;2023-08-21T01:31:37;19.80;99.90
5705;DHT22;2877;48.238;11.160;2023-08-21T01:34:06;19.70;99.90
5705;DHT22;2877;48.238;11.160;2023-08-21T01:36:35;19.80;99.90
5705;DHT22;2877;48.238;11.160;2023-08-21T01:39:01;19.70;99.90
5705;DHT22;2877;48.238;11.160;2023-08-21T01:41:26;19.60;99.90
5705;DHT22;2877;48.238;11.160;2023-08-21T01:43:52;19.50;99.90
5705;DHT22;2877;48.238;11.160;2023-08-21T01:46:17;19.50;99.90
5705;DHT22;2877;48.238;11.160;2023-08-21T01:48:43;19.50;99.90
5705;DHT22;2877;48.238;11.160;2023-08-21T01:51:08;19.30;99.90
5705;DHT22;2877;48.238;11.160;2023-08-21T01:53:34;19.30;99.90
5705;DHT22;2877;48.238;11.160;2023-08-21T01:55:59;19.20;99.90
5705;DHT22;2877;48.238;11.160;2023-08-21T01:58:25;19.10;99.90
5705;DHT22;2877;48.238;11.160;2023-08-21T02:00:51;19.10;99.90
5705;DHT22;2877;48.238;11.160;2023-08-21T02:03:16;19.10;99.90
5705;DHT22;2877;48.238;11.160;2023-08-21T02:05:42;19.10;99.90
5705;DHT22;2877;48.238;11.160;2023-08-21T02:08:14;19.20;99.90
5705;DHT22;2877;48.238;11.160;2023-08-21T02:10:50;19.20;99.90
5705;DHT22;2877;48.238;11.160;2023-08-21T02:13:15;19.20;99.90
5705;DHT22;2877;48.238;11.160;2023-08-21T02:15:41;19.20;99.90
5705;DHT22;2877;48.238;11.160;2023-08-21T02:18:07;19.20;99.90
5705;DHT22;2877;48.238;11.160;2023-08-21T02:20:32;19.20;99.90
5705;DHT22;2877;48.238;11.160;2023-08-21T02:22:58;19.20;99.90
5705;DHT22;2877;48.238;11.160;2023-08-21T02:25:23;19.20;99.90
5705;DHT22;2877;48.238;11.160;2023-08-21T02:27:49;19.20;99.90
5705;DHT22;2877;48.238;11.160;2023-08-21T02:30:14;19.10;99.90
5705;DHT22;2877;48.238;11.160;2023-08-21T02:32:40;19.00;99.90
5705;DHT22;2877;48.238;11.160;2023-08-21T02:35:07;19.00;99.90
5705;DHT22;2877;48.238;11.160;2023-08-21T02:37:33;18.90;99.90
5705;DHT22;2877;48.238;11.160;2023-08-21T02:39:59;18.80;99.90
5705;DHT22;2877;48.238;11.160;2023-08-21T02:42:25;18.70;99.90
5705;DHT22;2877;48.238;11.160;2023-08-21T02:44:50;18.60;99.90
5705;DHT22;2877;48.238;11.160;2023-08-21T02:47:16;18.60;99.90
5705;DHT22;2877;48.238;11.160;2023-08-21T02:49:41;18.60;99.90
5705;DHT22;2877;48.238;11.160;2023-08-21T02:52:07;18.50;99.90
5705;DHT22;2877;48.238;11.160;2023-08-21T02:54:33;18.50;99.90
5705;DHT22;2877;48.238;11.160;2023-08-21T02:56:58;18.50;99.90
5705;DHT22;2877;48.238;11.160;2023-08-21T02:59:24;18.40;99.90
5705;DHT22;2877;48.238;11.160;2023-08-21T03:01:49;18.40;99.90
5705;DHT22;2877;48.238;11.160;2023-08-21T03:04:15;18.40;99.90
5705;DHT22;2877;48.238;11.160;2023-08-21T03:06:40;18.40;99.90
5705;DHT22;2877;48.238;11.160;2023-08-21T03:09:06;18.30;99.90
5705;DHT22;2877;48.238;11.160;2023-08-21T03:11:31;18.40;99.90
5705;DHT22;2877;48.238;11.160;2023-08-21T03:13:57;18.50;99.90
5705;DHT22;2877;48.238;11.160;2023-08-21T03:16:22;18.40;99.90
5705;DHT22;2877;48.238;11.160;2023-08-21T03:18:59;18.40;99.90
5705;DHT22;2877;48.238;11.160;2023-08-21T03:21:25;18.40;99.90
5705;DHT22;2877;48.238;11.160;2023-08-21T03:23:56;18.40;99.90
5705;DHT22;2877;48.238;11.160;2023-08-21T03:26:22;18.30;99.90
5705;DHT22;2877;48.238;11.160;2023-08-21T03:28:48;18.30;99.90
5705;DHT22;2877;48.238;11.160;2023-08-21T03:31:14;18.30;99.90
5705;DHT22;2877;48.238;11.160;2023-08-21T03:33:39;18.30;99.90
5705;DHT22;2877;48.238;11.160;2023-08-21T03:36:05;18.30;99.90
5705;DHT22;2877;48.238;11.160;2023-08-21T03:38:31;18.20;99.90
5705;DHT22;2877;48.238;11.160;2023-08-21T03:40:56;18.40;99.90
5705;DHT22;2877;48.238;11.160;2023-08-21T03:43:22;18.40;99.90
5705;DHT22;2877;48.238;11.160;2023-08-21T03:45:47;18.40;99.90
5705;DHT22;2877;48.238;11.160;2023-08-21T03:48:13;18.40;99.90
5705;DHT22;2877;48.238;11.160;2023-08-21T03:50:39;18.40;99.90
5705;DHT22;2877;48.238;11.160;2023-08-21T03:53:04;18.40;99.90
5705;DHT22;2877;48.238;11.160;2023-08-21T03:55:30;18.40;99.90
5705;DHT22;2877;48.238;11.160;2023-08-21T03:57:56;18.40;99.90
5705;DHT22;2877;48.238;11.160;2023-08-21T04:00:21;18.30;99.90
5705;DHT22;2877;48.238;11.160;2023-08-21T04:02:47;18.30;99.90
5705;DHT22;2877;48.238;11.160;2023-08-21T04:05:12;18.30;99.90
5705;DHT22;2877;48.238;11.160;2023-08-21T04:07:38;18.20;99.90
5705;DHT22;2877;48.238;11.160;2023-08-21T04:10:05;18.20;99.90
5705;DHT22;2877;48.238;11.160;2023-08-21T04:12:31;18.30;99.90
5705;DHT22;2877;48.238;11.160;2023-08-21T04:14:56;18.40;99.90
5705;DHT22;2877;48.238;11.160;2023-08-21T04:17:22;18.50;99.90
5705;DHT22;2877;48.238;11.160;2023-08-21T04:19:49;18.60;99.90
5705;DHT22;2877;48.238;11.160;2023-08-21T04:22:14;18.40;99.90
5705;DHT22;2877;48.238;11.160;2023-08-21T04:24:41;18.30;99.90
5705;DHT22;2877;48.238;11.160;2023-08-21T04:27:07;18.30;99.90
5705;DHT22;2877;48.238;11.160;2023-08-21T04:29:32;18.10;99.90
5705;DHT22;2877;48.238;11.160;2023-08-21T04:31:58;18.10;99.90
5705;DHT22;2877;48.238;11.160;2023-08-21T04:34:23;18.20;99.90
5705;DHT22;2877;48.238;11.160;2023-08-21T04:36:49;18.20;99.90
5705;DHT22;2877;48.238;11.160;2023-08-21T04:39:14;18.20;99.90
5705;DHT22;2877;48.238;11.160;2023-08-21T04:41:41;18.20;99.90
5705;DHT22;2877;48.238;11.160;2023-08-21T04:44:07;18.20;99.90
5705;DHT22;2877;48.238;11.160;2023-08-21T04:46:32;18.20;99.90
5705;DHT22;2877;48.238;11.160;2023-08-21T04:48:58;18.20;99.90
5705;DHT22;2877;48.238;11.160;2023-08-21T04:51:24;18.30;99.90
5705;DHT22;2877;48.238;11.160;2023-08-21T04:53:49;18.30;99.90
5705;DHT22;2877;48.238;11.160;2023-08-21T04:56:15;18.30;99.90
5705;DHT22;2877;48.238;11.160;2023-08-21T04:58:40;18.20;99.90
5705;DHT22;2877;48.238;11.160;2023-08-21T05:01:06;18.20;99.90
5705;DHT22;2877;48.238;11.160;2023-08-21T05:03:32;18.30;99.90
5705;DHT22;2877;48.238;11.160;2023-08-21T05:05:57;18.40;99.90
5705;DHT22;2877;48.238;11.160;2023-08-21T05:08:24;18.40;99.90
5705;DHT22;2877;48.238;11.160;2023-08-21T05:10:57;18.40;99.90
5705;DHT22;2877;48.238;11.160;2023-08-21T05:13:23;18.40;99.90
5705;DHT22;2877;48.238;11.160;2023-08-21T05:15:53;18.60;99.90
5705;DHT22;2877;48.238;11.160;2023-08-21T05:18:20;18.80;99.90
5705;DHT22;2877;48.238;11.160;2023-08-21T05:20:46;18.90;99.90
5705;DHT22;2877;48.238;11.160;2023-08-21T05:23:11;19.10;99.90
5705;DHT22;2877;48.238;11.160;2023-08-21T05:25:37;19.30;99.90
5705;DHT22;2877;48.238;11.160;2023-08-21T05:28:04;19.30;99.90
5705;DHT22;2877;48.238;11.160;2023-08-21T05:30:30;19.40;99.90
5705;DHT22;2877;48.238;11.160;2023-08-21T05:32:55;19.40;99.90
5705;DHT22;2877;48.238;11.160;2023-08-21T05:35:21;19.50;99.90
5705;DHT22;2877;48.238;11.160;2023-08-21T05:37:47;19.60;99.90
5705;DHT22;2877;48.238;11.160;2023-08-21T05:40:12;19.60;99.90
5705;DHT22;2877;48.238;11.160;2023-08-21T05:42:38;19.70;99.90
5705;DHT22;2877;48.238;11.160;2023-08-21T05:45:04;19.70;99.90
5705;DHT22;2877;48.238;11.160;2023-08-21T05:47:30;19.80;99.90
5705;DHT22;2877;48.238;11.160;2023-08-21T05:49:56;19.90;99.90
5705;DHT22;2877;48.238;11.160;2023-08-21T05:52:22;20.00;99.90
5705;DHT22;2877;48.238;11.160;2023-08-21T05:54:48;20.10;99.90
5705;DHT22;2877;48.238;11.160;2023-08-21T05:57:13;20.20;99.90
5705;DHT22;2877;48.238;11.160;2023-08-21T05:59:44;20.20;99.90
5705;DHT22;2877;48.238;11.160;2023-08-21T06:02:10;20.30;99.90
5705;DHT22;2877;48.238;11.160;2023-08-21T06:04:37;20.40;99.90
5705;DHT22;2877;48.238;11.160;2023-08-21T06:07:02;20.60;99.90
5705;DHT22;2877;48.238;11.160;2023-08-21T06:09:29;20.70;99.90
5705;DHT22;2877;48.238;11.160;2023-08-21T06:11:55;20.80;99.90
5705;DHT22;2877;48.238;11.160;2023-08-21T06:14:20;20.90;99.90
5705;DHT22;2877;48.238;11.160;2023-08-21T06:17:03;21.00;99.90
5705;DHT22;2877;48.238;11.160;2023-08-21T06:19:29;21.10;99.90
5705;DHT22;2877;48.238;11.160;2023-08-21T06:21:55;21.20;99.90
5705;DHT22;2877;48.238;11.160;2023-08-21T06:24:21;21.30;99.90
5705;DHT22;2877;48.238;11.160;2023-08-21T06:26:46;21.50;99.90
5705;DHT22;2877;48.238;11.160;2023-08-21T06:29:12;21.60;99.90
5705;DHT22;2877;48.238;11.160;2023-08-21T06:31:38;21.70;99.90
5705;DHT22;2877;48.238;11.160;2023-08-21T06:34:03;21.80;99.90
5705;DHT22;2877;48.238;11.160;2023-08-21T06:36:29;22.00;99.90
5705;DHT22;2877;48.238;11.160;2023-08-21T06:38:55;22.10;99.90
5705;DHT22;2877;48.238;11.160;2023-08-21T06:41:21;22.20;99.90
5705;DHT22;2877;48.238;11.160;2023-08-21T06:43:47;22.30;99.90
5705;DHT22;2877;48.238;11.160;2023-08-21T06:46:12;22.50;99.90
5705;DHT22;2877;48.238;11.160;2023-08-21T06:48:39;22.60;99.90
5705;DHT22;2877;48.238;11.160;2023-08-21T06:51:06;22.70;99.90
5705;DHT22;2877;48.238;11.160;2023-08-21T06:53:32;22.90;99.90
5705;DHT22;2877;48.238;11.160;2023-08-21T06:55:57;23.00;99.90
5705;DHT22;2877;48.238;11.160;2023-08-21T06:58:23;23.10;99.90
5705;DHT22;2877;48.238;11.160;2023-08-21T07:00:49;23.30;99.90
5705;DHT22;2877;48.238;11.160;2023-08-21T07:03:14;23.40;99.90
5705;DHT22;2877;48.238;11.160;2023-08-21T07:05:40;23.40;99.90
5705;DHT22;2877;48.238;11.160;2023-08-21T07:08:06;23.60;99.90
5705;DHT22;2877;48.238;11.160;2023-08-21T07:10:37;23.70;99.90
5705;DHT22;2877;48.238;11.160;2023-08-21T07:13:03;23.80;99.90
5705;DHT22;2877;48.238;11.160;2023-08-21T07:15:29;24.00;99.90
5705;DHT22;2877;48.238;11.160;2023-08-21T07:17:55;24.10;99.90
5705;DHT22;2877;48.238;11.160;2023-08-21T07:20:21;24.20;99.90
5705;DHT22;2877;48.238;11.160;2023-08-21T07:22:47;24.40;99.90
5705;DHT22;2877;48.238;11.160;2023-08-21T07:25:12;24.60;99.90
5705;DHT22;2877;48.238;11.160;2023-08-21T07:27:38;24.80;99.90
5705;DHT22;2877;48.238;11.160;2023-08-21T07:30:05;25.00;99.90
5705;DHT22;2877;48.238;11.160;2023-08-21T07:32:31;25.10;99.90
5705;DHT22;2877;48.238;11.160;2023-08-21T07:34:56;25.30;99.90
5705;DHT22;2877;48.238;11.160;2023-08-21T07:37:22;25.50;99.90
5705;DHT22;2877;48.238;11.160;2023-08-21T07:39:47;25.70;99.90
5705;DHT22;2877;48.238;11.160;2023-08-21T07:42:13;25.80;99.90
5705;DHT22;2877;48.238;11.160;2023-08-21T07:44:39;26.00;99.90
5705;DHT22;2877;48.238;11.160;2023-08-21T07:47:05;26.10;99.90
5705;DHT22;2877;48.238;11.160;2023-08-21T07:49:34;26.30;99.90
5705;DHT22;2877;48.238;11.160;2023-08-21T07:51:59;26.40;99.90
5705;DHT22;2877;48.238;11.160;2023-08-21T07:54:25;26.50;99.90
5705;DHT22;2877;48.238;11.160;2023-08-21T07:56:51;26.60;99.90
5705;DHT22;2877;48.238;11.160;2023-08-21T07:59:16;26.80;99.90
5705;DHT22;2877;48.238;11.160;2023-08-21T08:01:42;26.90;99.90
5705;DHT22;2877;48.238;11.160;2023-08-21T08:04:08;27.00;99.90
5705;DHT22;2877;48.238;11.160;2023-08-21T08:06:34;27.00;99.90
5705;DHT22;2877;48.238;11.160;2023-08-21T08:09:00;27.10;99.90
5705;DHT22;2877;48.238;11.160;2023-08-21T08:11:25;27.10;99.90
5705;DHT22;2877;48.238;11.160;2023-08-21T08:13:51;27.30;99.90
5705;DHT22;2877;48.238;11.160;2023-08-21T08:16:16;27.50;99.90
5705;DHT22;2877;48.238;11.160;2023-08-21T08:18:42;27.70;99.90
5705;DHT22;2877;48.238;11.160;2023-08-21T08:21:08;27.80;99.90
5705;DHT22;2877;48.238;11.160;2023-08-21T08:23:34;27.70;99.90
5705;DHT22;2877;48.238;11.160;2023-08-21T08:26:00;27.60;99.90
5705;DHT22;2877;48.238;11.160;2023-08-21T08:28:25;27.60;99.90
5705;DHT22;2877;48.238;11.160;2023-08-21T08:30:51;27.60;99.90
5705;DHT22;2877;48.238;11.160;2023-08-21T08:33:16;27.80;99.90
5705;DHT22;2877;48.238;11.160;2023-08-21T08:35:42;28.10;99.90
5705;DHT22;2877;48.238;11.160;2023-08-21T08:38:08;28.30;99.90
5705;DHT22;2877;48.238;11.160;2023-08-21T08:40:37;28.40;99.90
5705;DHT22;2877;48.238;11.160;2023-08-21T08:43:03;28.60;98.60
5705;DHT22;2877;48.238;11.160;2023-08-21T08:45:30;28.90;99.90
5705;DHT22;2877;48.238;11.160;2023-08-21T08:48:01;29.10;96.70
5705;DHT22;2877;48.238;11.160;2023-08-21T08:50:32;29.20;97.50
5705;DHT22;2877;48.238;11.160;2023-08-21T08:52:59;29.30;97.30
5705;DHT22;2877;48.238;11.160;2023-08-21T08:55:25;29.20;96.60
5705;DHT22;2877;48.238;11.160;2023-08-21T08:57:55;29.30;96.00
5705;DHT22;2877;48.238;11.160;2023-08-21T09:00:21;29.50;95.50
5705;DHT22;2877;48.238;11.160;2023-08-21T09:02:47;29.60;95.70
5705;DHT22;2877;48.238;11.160;2023-08-21T09:05:13;29.40;94.60
5705;DHT22;2877;48.238;11.160;2023-08-21T09:07:39;29.40;95.80
5705;DHT22;2877;48.238;11.160;2023-08-21T09:10:13;29.40;96.10
5705;DHT22;2877;48.238;11.160;2023-08-21T09:12:39;29.40;95.60
5705;DHT22;2877;48.238;11.160;2023-08-21T09:15:08;29.60;96.10
5705;DHT22;2877;48.238;11.160;2023-08-21T09:17:34;29.70;95.30
5705;DHT22;2877;48.238;11.160;2023-08-21T09:20:06;29.90;94.70
5705;DHT22;2877;48.238;11.160;2023-08-21T09:22:33;30.10;95.30
5705;DHT22;2877;48.238;11.160;2023-08-21T09:25:08;30.10;94.10
5705;DHT22;2877;48.238;11.160;2023-08-21T09:27:39;30.20;93.60
5705;DHT22;2877;48.238;11.160;2023-08-21T09:30:09;30.40;93.40
5705;DHT22;2877;48.238;11.160;2023-08-21T09:32:55;30.40;93.20
5705;DHT22;2877;48.238;11.160;2023-08-21T09:35:22;30.30;93.20
5705;DHT22;2877;48.238;11.160;2023-08-21T09:37:48;30.30;93.30
5705;DHT22;2877;48.238;11.160;2023-08-21T09:40:15;30.30;91.80
5705;DHT22;2877;48.238;11.160;2023-08-21T09:42:42;30.30;92.00
5705;DHT22;2877;48.238;11.160;2023-08-21T09:45:07;30.00;92.20
5705;DHT22;2877;48.238;11.160;2023-08-21T09:47:33;29.90;92.30
5705;DHT22;2877;48.238;11.160;2023-08-21T09:49:59;29.70;92.30
5705;DHT22;2877;48.238;11.160;2023-08-21T09:52:26;29.90;92.80
5705;DHT22;2877;48.238;11.160;2023-08-21T09:54:53;30.00;92.40
5705;DHT22;2877;48.238;11.160;2023-08-21T09:57:22;30.10;93.50
5705;DHT22;2877;48.238;11.160;2023-08-21T09:59:53;30.20;92.40
5705;DHT22;2877;48.238;11.160;2023-08-21T10:02:20;30.50;92.10
5705;DHT22;2877;48.238;11.160;2023-08-21T10:04:48;30.60;92.10
5705;DHT22;2877;48.238;11.160;2023-08-21T10:07:16;30.50;91.60
5705;DHT22;2877;48.238;11.160;2023-08-21T10:09:43;30.90;92.40
5705;DHT22;2877;48.238;11.160;2023-08-21T10:12:09;31.30;92.20
5705;DHT22;2877;48.238;11.160;2023-08-21T10:14:36;31.60;91.80
5705;DHT22;2877;48.238;11.160;2023-08-21T10:17:02;31.60;92.40
5705;DHT22;2877;48.238;11.160;2023-08-21T10:19:32;31.30;91.60
5705;DHT22;2877;48.238;11.160;2023-08-21T10:21:57;31.00;91.10
5705;DHT22;2877;48.238;11.160;2023-08-21T10:24:37;30.80;91.80
5705;DHT22;2877;48.238;11.160;2023-08-21T10:27:03;30.80;91.20
5705;DHT22;2877;48.238;11.160;2023-08-21T10:29:31;30.80;91.10
5705;DHT22;2877;48.238;11.160;2023-08-21T10:32:04;30.80;91.00
5705;DHT22;2877;48.238;11.160;2023-08-21T10:34:37;31.00;91.00
5705;DHT22;2877;48.238;11.160;2023-08-21T10:37:03;31.10;90.90
5705;DHT22;2877;48.238;11.160;2023-08-21T10:39:31;31.10;88.20
5705;DHT22;2877;48.238;11.160;2023-08-21T10:42:11;31.10;89.20
5705;DHT22;2877;48.238;11.160;2023-08-21T10:50:00;31.10;88.50
5705;DHT22;2877;48.238;11.160;2023-08-21T10:52:27;31.20;85.00
5705;DHT22;2877;48.238;11.160;2023-08-21T10:54:55;31.30;84.80
5705;DHT22;2877;48.238;11.160;2023-08-21T10:57:22;31.40;83.70
5705;DHT22;2877;48.238;11.160;2023-08-21T10:59:59;31.50;83.90
5705;DHT22;2877;48.238;11.160;2023-08-21T11:02:29;31.80;83.60
5705;DHT22;2877;48.238;11.160;2023-08-21T11:04:55;32.10;86.90
5705;DHT22;2877;48.238;11.160;2023-08-21T11:07:21;32.00;85.80
5705;DHT22;2877;48.238;11.160;2023-08-21T11:09:48;32.10;85.70
5705;DHT22;2877;48.238;11.160;2023-08-21T11:12:19;32.20;83.60
5705;DHT22;2877;48.238;11.160;2023-08-21T11:14:45;32.00;83.70
5705;DHT22;2877;48.238;11.160;2023-08-21T11:17:12;32.30;82.30
5705;DHT22;2877;48.238;11.160;2023-08-21T11:19:38;32.80;80.90
5705;DHT22;2877;48.238;11.160;2023-08-21T11:22:04;33.20;76.20
5705;DHT22;2877;48.238;11.160;2023-08-21T11:27:09;33.20;73.30
5705;DHT22;2877;48.238;11.160;2023-08-21T11:29:40;33.10;77.80
5705;DHT22;2877;48.238;11.160;2023-08-21T11:32:13;33.20;77.90
5705;DHT22;2877;48.238;11.160;2023-08-21T11:34:50;33.40;76.30
5705;DHT22;2877;48.238;11.160;2023-08-21T11:37:21;33.50;76.00
5705;DHT22;2877;48.238;11.160;2023-08-21T11:39:49;33.70;76.50
5705;DHT22;2877;48.238;11.160;2023-08-21T11:42:15;33.80;73.10
5705;DHT22;2877;48.238;11.160;2023-08-21T11:44:45;33.70;69.80
5705;DHT22;2877;48.238;11.160;2023-08-21T11:47:13;33.40;71.10
5705;DHT22;2877;48.238;11.160;2023-08-21T11:49:40;33.80;73.10
5705;DHT22;2877;48.238;11.160;2023-08-21T11:52:12;33.80;68.10
5705;DHT22;2877;48.238;11.160;2023-08-21T11:54:38;33.70;70.10
5705;DHT22;2877;48.238;11.160;2023-08-21T11:57:13;33.90;68.20
5705;DHT22;2877;48.238;11.160;2023-08-21T11:59:39;34.10;68.60
5705;DHT22;2877;48.238;11.160;2023-08-21T12:02:14;34.30;65.70
5705;DHT22;2877;48.238;11.160;2023-08-21T12:04:41;34.50;66.30
5705;DHT22;2877;48.238;11.160;2023-08-21T12:07:07;35.20;65.00
5705;DHT22;2877;48.238;11.160;2023-08-21T12:09:33;35.40;62.80
5705;DHT22;2877;48.238;11.160;2023-08-21T12:11:58;34.90;62.90
5705;DHT22;2877;48.238;11.160;2023-08-21T12:14:24;34.50;66.20
5705;DHT22;2877;48.238;11.160;2023-08-21T12:16:50;34.30;67.30
5705;DHT22;2877;48.238;11.160;2023-08-21T12:19:16;34.60;66.70
5705;DHT22;2877;48.238;11.160;2023-08-21T12:21:42;35.20;65.20
5705;DHT22;2877;48.238;11.160;2023-08-21T12:24:08;35.60;63.50
5705;DHT22;2877;48.238;11.160;2023-08-21T12:26:34;36.10;62.20
5705;DHT22;2877;48.238;11.160;2023-08-21T12:29:00;36.20;60.60
5705;DHT22;2877;48.238;11.160;2023-08-21T12:31:26;36.20;60.20
5705;DHT22;2877;48.238;11.160;2023-08-21T12:33:52;36.70;58.80
5705;DHT22;2877;48.238;11.160;2023-08-21T12:36:17;37.40;57.20
5705;DHT22;2877;48.238;11.160;2023-08-21T12:38:43;38.00;56.30
5705;DHT22;2877;48.238;11.160;2023-08-21T12:41:08;38.60;55.60
5705;DHT22;2877;48.238;11.160;2023-08-21T12:43:34;38.90;55.50
5705;DHT22;2877;48.238;11.160;2023-08-21T12:45:59;38.90;52.70
5705;DHT22;2877;48.238;11.160;2023-08-21T12:48:25;39.10;51.50
5705;DHT22;2877;48.238;11.160;2023-08-21T12:50:50;38.80;52.40
5705;DHT22;2877;48.238;11.160;2023-08-21T12:53:16;39.20;53.40
5705;DHT22;2877;48.238;11.160;2023-08-21T12:55:42;39.70;50.30
5705;DHT22;2877;48.238;11.160;2023-08-21T12:58:08;39.50;49.30
5705;DHT22;2877;48.238;11.160;2023-08-21T13:00:33;39.30;50.60
5705;DHT22;2877;48.238;11.160;2023-08-21T13:02:59;39.80;50.00
5705;DHT22;2877;48.238;11.160;2023-08-21T13:05:25;40.10;49.90
5705;DHT22;2877;48.238;11.160;2023-08-21T13:07:50;39.90;47.80
5705;DHT22;2877;48.238;11.160;2023-08-21T13:10:16;40.00;48.30
5705;DHT22;2877;48.238;11.160;2023-08-21T13:12:42;40.80;48.60
5705;DHT22;2877;48.238;11.160;2023-08-21T13:15:07;42.10;45.70
5705;DHT22;2877;48.238;11.160;2023-08-21T13:17:34;42.50;44.40
5705;DHT22;2877;48.238;11.160;2023-08-21T13:20:00;42.60;42.80
5705;DHT22;2877;48.238;11.160;2023-08-21T13:22:25;42.60;42.10
5705;DHT22;2877;48.238;11.160;2023-08-21T13:24:51;42.30;42.10
5705;DHT22;2877;48.238;11.160;2023-08-21T13:27:16;41.60;42.70
5705;DHT22;2877;48.238;11.160;2023-08-21T13:29:42;41.60;42.70
5705;DHT22;2877;48.238;11.160;2023-08-21T13:32:07;42.20;42.90
5705;DHT22;2877;48.238;11.160;2023-08-21T13:34:33;42.10;42.10
5705;DHT22;2877;48.238;11.160;2023-08-21T13:36:59;41.50;42.20
5705;DHT22;2877;48.238;11.160;2023-08-21T13:39:24;41.70;44.00
5705;DHT22;2877;48.238;11.160;2023-08-21T13:41:51;42.20;43.30
5705;DHT22;2877;48.238;11.160;2023-08-21T13:44:17;42.70;42.10
5705;DHT22;2877;48.238;11.160;2023-08-21T13:46:43;42.70;40.90
5705;DHT22;2877;48.238;11.160;2023-08-21T13:49:09;42.20;41.70
5705;DHT22;2877;48.238;11.160;2023-08-21T13:51:34;40.90;42.50
5705;DHT22;2877;48.238;11.160;2023-08-21T13:54:00;40.60;42.60
5705;DHT22;2877;48.238;11.160;2023-08-21T13:56:26;41.10;41.70
5705;DHT22;2877;48.238;11.160;2023-08-21T13:58:51;41.40;41.80
5705;DHT22;2877;48.238;11.160;2023-08-21T14:01:17;42.20;40.60
5705;DHT22;2877;48.238;11.160;2023-08-21T14:03:42;42.40;40.30
5705;DHT22;2877;48.238;11.160;2023-08-21T14:06:08;42.80;39.40
5705;DHT22;2877;48.238;11.160;2023-08-21T14:08:38;43.30;38.70
5705;DHT22;2877;48.238;11.160;2023-08-21T14:11:03;42.50;38.90
5705;DHT22;2877;48.238;11.160;2023-08-21T14:13:29;41.60;39.30
5705;DHT22;2877;48.238;11.160;2023-08-21T14:15:54;41.20;41.70
5705;DHT22;2877;48.238;11.160;2023-08-21T14:18:20;41.70;41.70
5705;DHT22;2877;48.238;11.160;2023-08-21T14:20:46;42.40;40.20
5705;DHT22;2877;48.238;11.160;2023-08-21T14:23:11;42.00;39.00
5705;DHT22;2877;48.238;11.160;2023-08-21T14:25:37;41.20;38.90
5705;DHT22;2877;48.238;11.160;2023-08-21T14:28:03;40.90;40.20
5705;DHT22;2877;48.238;11.160;2023-08-21T14:30:29;41.50;39.80
5705;DHT22;2877;48.238;11.160;2023-08-21T14:32:54;41.60;39.60
5705;DHT22;2877;48.238;11.160;2023-08-21T14:35:20;41.30;39.80
5705;DHT22;2877;48.238;11.160;2023-08-21T14:37:45;40.50;41.00
5705;DHT22;2877;48.238;11.160;2023-08-21T14:40:11;39.90;40.40
5705;DHT22;2877;48.238;11.160;2023-08-21T14:42:37;38.80;41.80
5705;DHT22;2877;48.238;11.160;2023-08-21T14:45:03;37.80;44.00
5705;DHT22;2877;48.238;11.160;2023-08-21T14:47:29;37.10;46.00
5705;DHT22;2877;48.238;11.160;2023-08-21T14:49:54;36.30;47.90
5705;DHT22;2877;48.238;11.160;2023-08-21T14:52:20;35.40;48.10
5705;DHT22;2877;48.238;11.160;2023-08-21T14:54:48;34.70;50.70
5705;DHT22;2877;48.238;11.160;2023-08-21T14:57:15;34.30;51.10
5705;DHT22;2877;48.238;11.160;2023-08-21T14:59:41;33.80;51.30
5705;DHT22;2877;48.238;11.160;2023-08-21T15:02:06;33.60;51.80
5705;DHT22;2877;48.238;11.160;2023-08-21T15:04:33;33.50;52.80
5705;DHT22;2877;48.238;11.160;2023-08-21T15:06:58;33.60;52.90
5705;DHT22;2877;48.238;11.160;2023-08-21T15:09:24;33.60;53.20
5705;DHT22;2877;48.238;11.160;2023-08-21T15:11:49;33.50;53.20
5705;DHT22;2877;48.238;11.160;2023-08-21T15:14:15;33.50;52.70
5705;DHT22;2877;48.238;11.160;2023-08-21T15:16:40;33.50;53.90
5705;DHT22;2877;48.238;11.160;2023-08-21T15:19:06;33.50;53.60
5705;DHT22;2877;48.238;11.160;2023-08-21T15:21:32;33.70;54.90
5705;DHT22;2877;48.238;11.160;2023-08-21T15:23:57;33.90;53.80
5705;DHT22;2877;48.238;11.160;2023-08-21T15:26:23;34.10;52.70
5705;DHT22;2877;48.238;11.160;2023-08-21T15:28:48;34.10;53.80
5705;DHT22;2877;48.238;11.160;2023-08-21T15:31:14;34.10;53.60
5705;DHT22;2877;48.238;11.160;2023-08-21T15:33:40;34.10;53.30
5705;DHT22;2877;48.238;11.160;2023-08-21T15:36:05;33.90;54.10
5705;DHT22;2877;48.238;11.160;2023-08-21T15:38:31;33.80;53.50
5705;DHT22;2877;48.238;11.160;2023-08-21T15:40:56;33.80;54.20
5705;DHT22;2877;48.238;11.160;2023-08-21T15:43:22;33.50;54.90
5705;DHT22;2877;48.238;11.160;2023-08-21T15:45:47;33.40;55.30
5705;DHT22;2877;48.238;11.160;2023-08-21T15:48:13;33.50;55.00
5705;DHT22;2877;48.238;11.160;2023-08-21T15:50:39;33.60;54.20